createdAt,value
2022-10-01T00:02:28.763Z,2.47
2022-10-01T00:05:30.593Z,2.17
2022-10-01T00:08:33.147Z,2.45
2022-10-01T00:11:35.154Z,2.10
2022-10-01T00:14:39.380Z,2.05
2022-10-01T00:17:41.819Z,2.10
2022-10-01T00:20:43.938Z,2.40
2022-10-01T00:23:46.405Z,2.00
2022-10-01T00:26:48.404Z,2.00
2022-10-01T00:29:50.303Z,2.10
2022-10-01T00:32:54.675Z,2.05
2022-10-01T00:35:57.034Z,2.05
2022-10-01T00:39:00.579Z,1.77
2022-10-01T00:42:04.118Z,2.00
2022-10-01T00:45:05.903Z,1.88
2022-10-01T00:48:07.709Z,1.90
2022-10-01T00:51:09.639Z,2.10
2022-10-01T00:54:24.112Z,2.03
2022-10-01T00:57:27.470Z,2.03
2022-10-01T01:00:30.172Z,2.35
2022-10-01T01:03:31.986Z,3.05
2022-10-01T01:06:33.649Z,3.00
2022-10-01T01:09:39.371Z,2.72
2022-10-01T01:13:02.484Z,2.90
2022-10-01T01:16:15.900Z,2.80
2022-10-01T01:19:45.747Z,2.90
2022-10-01T01:22:56.080Z,2.60
2022-10-01T01:26:11.896Z,3.17
2022-10-01T01:29:46.996Z,3.08
2022-10-01T01:33:09.343Z,2.72
2022-10-01T01:36:28.563Z,3.03
2022-10-01T01:39:33.475Z,2.67
2022-10-01T01:42:37.817Z,3.33
2022-10-01T01:45:40.388Z,3.05
2022-10-01T01:48:47.559Z,3.55
2022-10-01T01:52:26.040Z,2.72
2022-10-01T01:55:30.045Z,2.95
2022-10-01T01:58:34.170Z,2.30
2022-10-01T02:01:44.188Z,2.10
2022-10-01T02:04:59.400Z,2.70
2022-10-01T02:08:23.958Z,2.40
2022-10-01T02:11:29.882Z,2.17
2022-10-01T02:15:18.020Z,2.97
2022-10-01T02:18:50.639Z,2.53
2022-10-01T02:22:11.797Z,1.98
2022-10-01T02:25:17.478Z,2.40
2022-10-01T02:28:22.993Z,2.20
2022-10-01T02:31:25.077Z,2.67
2022-10-01T02:34:30.338Z,2.40
2022-10-01T02:37:34.000Z,2.72
2022-10-01T02:40:40.979Z,2.60
2022-10-01T02:44:07.606Z,2.40
2022-10-01T02:47:18.439Z,2.35
2022-10-01T02:50:22.000Z,2.50
2022-10-01T02:53:34.394Z,2.47
2022-10-01T02:56:56.322Z,2.20
2022-10-01T03:00:04.928Z,2.33
2022-10-01T03:03:06.785Z,2.40
2022-10-01T03:06:08.692Z,2.33
2022-10-01T03:09:10.342Z,2.25
2022-10-01T03:12:12.386Z,2.20
2022-10-01T03:15:16.355Z,1.90
2022-10-01T03:18:19.163Z,1.70
2022-10-01T03:21:21.001Z,1.90
2022-10-01T03:24:22.901Z,1.80
2022-10-01T03:27:24.669Z,1.75
2022-10-01T03:30:26.875Z,2.10
2022-10-01T03:33:28.832Z,1.73
2022-10-01T03:36:30.805Z,1.83
2022-10-01T03:39:32.462Z,1.70
2022-10-01T03:42:34.091Z,1.65
2022-10-01T03:45:35.968Z,2.10
2022-10-01T03:48:38.156Z,1.70
2022-10-01T03:51:40.071Z,1.58
2022-10-01T03:54:41.805Z,1.73
2022-10-01T03:57:43.600Z,1.90
2022-10-01T04:00:46.757Z,2.05
2022-10-01T04:03:50.333Z,1.85
2022-10-01T04:06:52.072Z,2.00
2022-10-01T04:09:53.854Z,2.10
2022-10-01T04:12:55.779Z,2.35
2022-10-01T04:15:57.401Z,2.20
2022-10-01T04:18:59.351Z,2.08
2022-10-01T04:22:01.098Z,2.47
2022-10-01T04:25:02.721Z,2.08
2022-10-01T04:28:06.552Z,2.13
2022-10-01T04:31:26.737Z,2.42
2022-10-01T04:34:48.953Z,2.42
2022-10-01T04:38:14.041Z,2.40
2022-10-01T04:41:15.820Z,2.13
2022-10-01T04:44:17.726Z,2.70
2022-10-01T04:47:19.517Z,2.28
2022-10-01T04:50:22.939Z,2.42
2022-10-01T04:53:25.305Z,2.47
2022-10-01T04:56:27.208Z,2.50
2022-10-01T04:59:29.018Z,2.50
2022-10-01T05:02:33.087Z,2.90
2022-10-01T05:05:35.272Z,2.92
2022-10-01T05:08:37.639Z,2.65
2022-10-01T05:11:39.864Z,2.80
2022-10-01T05:14:41.675Z,2.80
2022-10-01T05:17:43.667Z,2.70
2022-10-01T05:20:45.632Z,2.80
2022-10-01T05:23:47.182Z,2.45
2022-10-01T05:26:48.793Z,2.33
2022-10-01T05:29:51.159Z,2.50
2022-10-01T05:32:59.738Z,2.60
2022-10-01T05:36:01.684Z,2.40
2022-10-01T05:39:03.447Z,2.30
2022-10-01T05:42:06.535Z,2.85
2022-10-01T05:45:10.104Z,2.50
2022-10-01T05:48:12.853Z,2.70
2022-10-01T05:51:16.111Z,2.60
2022-10-01T05:54:19.662Z,2.30
2022-10-01T05:57:21.348Z,2.70
2022-10-01T06:00:23.412Z,2.50
2022-10-01T06:03:27.028Z,2.45
2022-10-01T06:06:29.429Z,2.80
2022-10-01T06:09:31.200Z,2.40
2022-10-01T06:12:34.515Z,2.45
2022-10-01T06:15:38.972Z,2.65
2022-10-01T06:18:42.188Z,2.60
2022-10-01T06:21:44.111Z,2.70
2022-10-01T06:24:45.951Z,2.58
2022-10-01T06:27:59.362Z,2.55
2022-10-01T06:31:02.483Z,2.20
2022-10-01T06:34:04.264Z,2.13
2022-10-01T06:37:05.879Z,2.30
2022-10-01T06:40:07.857Z,2.47
2022-10-01T06:43:09.993Z,2.60
2022-10-01T06:46:11.755Z,2.47
2022-10-01T06:49:13.982Z,2.47
2022-10-01T06:52:34.139Z,2.55
2022-10-01T06:55:37.360Z,2.37
2022-10-01T06:58:39.059Z,2.30
2022-10-01T07:01:40.863Z,2.40
2022-10-01T07:04:42.635Z,2.33
2022-10-01T07:07:44.996Z,2.10
2022-10-01T07:10:46.855Z,2.13
2022-10-01T07:13:54.344Z,1.90
2022-10-01T07:16:56.384Z,1.83
2022-10-01T07:19:58.325Z,1.70
2022-10-01T07:23:00.733Z,1.88
2022-10-01T07:26:08.952Z,1.80
2022-10-01T07:29:10.940Z,1.60
2022-10-01T07:32:12.680Z,2.30
2022-10-01T07:35:14.551Z,1.45
2022-10-01T07:38:16.610Z,1.80
2022-10-01T07:41:18.275Z,1.52
2022-10-01T07:44:20.163Z,1.42
2022-10-01T07:47:22.313Z,1.58
2022-10-01T07:50:25.405Z,1.40
2022-10-01T07:53:27.604Z,1.48
2022-10-01T07:56:29.644Z,2.08
2022-10-01T07:59:31.673Z,1.38
2022-10-01T08:02:35.611Z,1.80
2022-10-01T08:05:37.769Z,1.40
2022-10-01T08:08:39.600Z,1.17
2022-10-01T08:11:42.608Z,1.20
2022-10-01T08:14:44.469Z,1.55
2022-10-01T08:17:46.441Z,1.38
2022-10-01T08:20:48.271Z,1.30
2022-10-01T08:23:50.198Z,1.30
2022-10-01T08:27:01.979Z,1.40
2022-10-01T08:30:04.687Z,1.20
2022-10-01T08:33:07.326Z,1.05
2022-10-01T08:36:09.205Z,1.20
2022-10-01T08:39:12.822Z,1.10
2022-10-01T08:42:41.747Z,1.40
2022-10-01T08:45:51.569Z,1.20
2022-10-01T08:48:57.392Z,1.40
2022-10-01T08:52:05.389Z,1.10
2022-10-01T08:55:14.240Z,1.02
2022-10-01T08:58:23.668Z,1.10
2022-10-01T09:01:26.962Z,1.10
2022-10-01T09:04:29.648Z,1.02
2022-10-01T09:07:55.764Z,1.10
2022-10-01T09:11:04.531Z,1.20
2022-10-01T09:14:21.377Z,1.20
2022-10-01T09:17:59.010Z,1.08
2022-10-01T09:21:03.001Z,1.10
2022-10-01T09:24:27.902Z,1.00
2022-10-01T09:27:29.765Z,1.10
2022-10-01T09:30:32.157Z,1.00
2022-10-01T09:33:38.014Z,1.02
2022-10-01T09:37:04.655Z,0.98
2022-10-01T09:40:29.075Z,1.00
2022-10-01T09:43:34.992Z,0.90
2022-10-01T09:46:36.989Z,1.05
2022-10-01T09:49:39.742Z,0.90
2022-10-01T09:52:44.380Z,1.10
2022-10-01T09:55:54.218Z,1.00
2022-10-01T09:59:01.914Z,0.90
2022-10-01T10:02:15.313Z,1.00
2022-10-01T10:05:26.263Z,1.02
2022-10-01T10:08:33.649Z,1.00
2022-10-01T10:11:36.038Z,1.08
2022-10-01T10:14:41.549Z,1.30
2022-10-01T10:17:49.453Z,1.05
2022-10-01T10:20:55.196Z,1.27
2022-10-01T10:23:59.418Z,1.02
2022-10-01T10:27:04.620Z,1.33
2022-10-01T10:30:14.262Z,1.20
2022-10-01T10:33:18.375Z,1.10
2022-10-01T10:36:22.822Z,1.38
2022-10-01T10:39:31.511Z,1.50
2022-10-01T10:42:34.267Z,1.77
2022-10-01T10:45:38.877Z,1.52
2022-10-01T10:48:44.238Z,1.75
2022-10-01T10:51:51.489Z,1.80
2022-10-01T10:54:56.481Z,2.13
2022-10-01T10:58:11.145Z,1.80
2022-10-01T11:01:22.094Z,1.77
2022-10-01T11:04:38.419Z,1.85
2022-10-01T11:07:45.170Z,2.10
2022-10-01T11:11:34.221Z,2.25
2022-10-01T11:14:45.802Z,2.17
2022-10-01T11:18:09.481Z,2.30
2022-10-01T11:21:49.327Z,1.83
2022-10-01T11:25:36.502Z,2.30
2022-10-01T11:29:12.861Z,2.17
2022-10-01T11:32:34.290Z,1.80
2022-10-01T11:35:58.951Z,2.20
2022-10-01T11:39:05.493Z,2.20
2022-10-01T11:42:20.872Z,2.40
2022-10-01T11:45:29.619Z,2.40
2022-10-01T11:48:52.828Z,2.22
2022-10-01T11:52:14.775Z,2.47
2022-10-01T11:55:40.010Z,2.50
2022-10-01T11:58:50.905Z,2.50
2022-10-01T12:05:10.800Z,2.60
2022-10-01T12:08:27.809Z,3.13
2022-10-01T12:11:42.828Z,2.38
2022-10-01T12:14:52.579Z,2.65
2022-10-01T12:18:10.538Z,2.20
2022-10-01T12:21:41.493Z,2.33
2022-10-01T12:24:45.538Z,2.60
2022-10-01T12:27:58.071Z,2.63
2022-10-01T12:31:30.680Z,2.72
2022-10-01T12:34:57.082Z,2.83
2022-10-01T12:38:26.437Z,2.63
2022-10-01T12:41:47.750Z,2.55
2022-10-01T12:45:30.541Z,2.53
2022-10-01T12:48:52.956Z,2.55
2022-10-01T12:52:14.528Z,3.30
2022-10-01T12:55:55.783Z,2.45
2022-10-01T12:59:10.157Z,2.60
2022-10-01T13:02:18.245Z,2.90
2022-10-01T13:05:58.953Z,2.78
2022-10-01T13:09:20.900Z,2.85
2022-10-01T13:12:59.092Z,3.25
2022-10-01T13:16:27.239Z,3.60
2022-10-01T13:20:06.826Z,3.45
2022-10-01T13:23:34.103Z,2.85
2022-10-01T13:26:47.090Z,2.95
2022-10-01T13:29:48.800Z,2.70
2022-10-01T13:32:58.511Z,2.70
2022-10-01T13:36:03.869Z,2.60
2022-10-01T13:39:11.970Z,3.58
2022-10-01T13:42:22.976Z,2.90
2022-10-01T13:45:24.660Z,2.88
2022-10-01T13:48:35.409Z,2.63
2022-10-01T13:54:47.474Z,2.78
2022-10-01T13:57:49.389Z,3.00
2022-10-01T14:00:54.603Z,2.95
2022-10-01T14:04:32.456Z,1.83
2022-10-01T14:07:38.963Z,0.80
2022-10-01T14:11:07.694Z,0.70
2022-10-01T14:14:51.324Z,0.52
2022-10-01T14:17:55.856Z,0.70
2022-10-01T14:21:29.835Z,0.50
2022-10-01T14:25:05.312Z,0.50
2022-10-01T14:28:32.526Z,0.73
2022-10-01T14:31:53.017Z,0.55
2022-10-01T14:35:21.488Z,0.50
2022-10-01T14:38:23.881Z,0.60
2022-10-01T14:41:26.287Z,0.43
2022-10-01T14:44:29.751Z,0.70
2022-10-01T14:47:35.733Z,0.60
2022-10-01T14:50:39.228Z,0.50
2022-10-01T14:53:43.697Z,0.68
2022-10-01T14:56:46.065Z,0.63
2022-10-01T14:59:49.114Z,0.85
2022-10-01T15:02:54.104Z,0.63
2022-10-01T15:06:05.069Z,0.60
2022-10-01T15:12:17.103Z,0.52
2022-10-01T15:15:47.202Z,1.27
2022-10-01T15:18:55.230Z,0.65
2022-10-01T15:22:00.360Z,0.80
2022-10-01T15:25:02.820Z,0.90
2022-10-01T15:28:14.904Z,1.05
2022-10-01T15:31:21.579Z,0.88
2022-10-01T15:34:26.329Z,0.85
2022-10-01T15:37:37.441Z,1.27
2022-10-01T15:40:42.784Z,1.10
2022-10-01T15:43:45.269Z,0.82
2022-10-01T15:46:48.108Z,1.00
2022-10-01T15:50:08.905Z,0.80
2022-10-01T15:53:21.748Z,1.00
2022-10-01T15:56:24.847Z,1.13
2022-10-01T15:59:26.657Z,1.02
2022-10-01T16:02:31.699Z,0.95
2022-10-01T16:05:46.010Z,1.10
2022-10-01T16:09:11.938Z,1.33
2022-10-01T16:12:29.630Z,1.33
2022-10-01T16:15:31.572Z,1.13
2022-10-01T16:18:34.805Z,1.30
2022-10-01T16:21:40.921Z,1.98
2022-10-01T16:24:46.993Z,1.13
2022-10-01T16:27:50.685Z,1.52
2022-10-01T16:30:54.164Z,1.30
2022-10-01T16:33:55.750Z,2.30
2022-10-01T16:36:57.912Z,1.80
2022-10-01T16:39:59.548Z,1.40
2022-10-01T16:43:02.941Z,1.42
2022-10-01T16:46:05.688Z,1.40
2022-10-01T16:49:15.630Z,1.45
2022-10-01T16:52:17.704Z,1.40
2022-10-01T16:55:36.697Z,1.73
2022-10-01T16:58:39.191Z,1.38
2022-10-01T17:01:41.391Z,1.48
2022-10-01T17:04:43.213Z,1.65
2022-10-01T17:07:45.283Z,1.00
2022-10-01T17:10:58.601Z,1.45
2022-10-01T17:14:03.003Z,1.30
2022-10-01T17:17:04.991Z,1.35
2022-10-01T17:20:07.472Z,1.50
2022-10-01T17:23:14.579Z,1.30
2022-10-01T17:26:16.420Z,1.83
2022-10-01T17:29:18.181Z,1.45
2022-10-01T17:32:20.129Z,2.00
2022-10-01T17:35:22.112Z,1.92
2022-10-01T17:38:24.101Z,1.73
2022-10-01T17:41:25.860Z,1.65
2022-10-01T17:44:27.536Z,2.10
2022-10-01T17:47:29.489Z,1.60
2022-10-01T17:50:31.576Z,1.65
2022-10-01T17:53:41.112Z,1.65
2022-10-01T17:59:49.288Z,1.20
2022-10-01T18:02:51.501Z,1.00
2022-10-01T18:06:01.556Z,1.02
2022-10-01T18:09:03.428Z,1.10
2022-10-01T18:12:05.290Z,0.98
2022-10-01T18:15:10.552Z,1.15
2022-10-01T18:21:35.306Z,1.17
2022-10-01T18:24:37.204Z,1.50
2022-10-01T18:27:38.972Z,1.20
2022-10-01T18:30:41.836Z,1.50
2022-10-01T18:33:47.163Z,1.35
2022-10-01T18:37:05.426Z,1.92
2022-10-01T18:40:17.882Z,1.02
2022-10-01T18:43:24.208Z,1.35
2022-10-01T18:46:52.196Z,1.10
2022-10-01T18:50:25.078Z,1.50
2022-10-01T18:54:11.910Z,1.45
2022-10-01T18:57:34.468Z,1.52
2022-10-01T19:01:07.519Z,1.23
2022-10-01T19:04:37.679Z,1.38
2022-10-01T19:07:55.167Z,1.50
2022-10-01T19:11:24.680Z,2.65
2022-10-01T19:14:52.776Z,1.67
2022-10-01T19:18:23.158Z,2.35
2022-10-01T19:21:51.407Z,2.20
2022-10-01T19:25:12.161Z,2.00
2022-10-01T19:28:49.488Z,1.60
2022-10-01T19:32:12.541Z,2.17
2022-10-01T19:35:23.271Z,2.00
2022-10-01T19:38:34.906Z,2.08
2022-10-01T19:41:36.943Z,2.20
2022-10-01T19:44:53.944Z,2.40
2022-10-01T19:48:19.644Z,2.10
2022-10-01T19:51:31.107Z,1.77
2022-10-01T19:54:43.065Z,1.92
2022-10-01T19:57:45.349Z,1.88
2022-10-01T20:00:57.015Z,2.00
2022-10-01T20:04:14.798Z,2.35
2022-10-01T20:08:04.151Z,1.98
2022-10-01T20:11:13.952Z,2.30
2022-10-01T20:14:41.183Z,2.10
2022-10-01T20:18:13.315Z,1.90
2022-10-01T20:21:45.108Z,1.90
2022-10-01T20:25:07.135Z,1.60
2022-10-01T20:28:28.026Z,1.83
2022-10-01T20:31:52.008Z,1.85
2022-10-01T20:35:06.261Z,1.65
2022-10-01T20:38:22.784Z,1.83
2022-10-01T20:41:27.270Z,2.00
2022-10-01T20:44:35.660Z,2.08
2022-10-01T20:47:47.732Z,1.55
2022-10-01T20:51:00.917Z,2.28
2022-10-01T20:54:10.997Z,1.80
2022-10-01T20:57:48.320Z,1.67
2022-10-01T21:00:56.026Z,1.50
2022-10-01T21:04:10.661Z,2.10
2022-10-01T21:07:28.165Z,1.95
2022-10-01T21:10:59.675Z,1.65
2022-10-01T21:14:13.112Z,2.45
2022-10-01T21:17:39.755Z,1.83
2022-10-01T21:20:59.733Z,1.65
2022-10-01T21:24:32.580Z,1.70
2022-10-01T21:28:04.676Z,2.08
2022-10-01T21:31:25.183Z,1.90
2022-10-01T21:34:51.501Z,1.80
2022-10-01T21:38:08.279Z,1.63
2022-10-01T21:41:28.598Z,1.95
2022-10-01T21:44:43.849Z,1.60
2022-10-01T21:47:58.257Z,2.10
2022-10-01T21:51:10.608Z,2.17
2022-10-01T21:54:45.891Z,2.10
2022-10-01T21:58:09.556Z,1.70
2022-10-01T22:01:16.943Z,1.63
2022-10-01T22:04:35.506Z,2.15
2022-10-01T22:07:48.287Z,1.92
2022-10-01T22:10:53.478Z,1.95
2022-10-01T22:13:59.168Z,2.28
2022-10-01T22:17:12.419Z,1.90
2022-10-01T22:20:17.978Z,2.58
2022-10-01T22:23:20.007Z,2.33
2022-10-01T22:26:26.649Z,1.90
2022-10-01T22:29:31.441Z,1.90
2022-10-01T22:32:49.680Z,1.83
2022-10-01T22:36:10.466Z,1.85
2022-10-01T22:39:25.616Z,1.92
2022-10-01T22:42:33.413Z,2.00
2022-10-01T22:45:59.809Z,1.60
2022-10-01T22:49:24.335Z,1.63
2022-10-01T22:53:05.054Z,2.08
2022-10-01T22:56:07.033Z,1.80
2022-10-01T22:59:26.866Z,1.70
2022-10-01T23:02:53.392Z,1.60
2022-10-01T23:06:29.945Z,1.60
2022-10-01T23:09:53.037Z,1.70
2022-10-01T23:13:10.288Z,2.20
2022-10-01T23:16:51.934Z,1.90
2022-10-01T23:20:23.976Z,1.35
2022-10-01T23:23:33.946Z,1.63
2022-10-01T23:27:10.532Z,1.50
2022-10-01T23:30:15.846Z,1.20
2022-10-01T23:33:55.134Z,1.42
2022-10-01T23:37:06.312Z,1.42
2022-10-01T23:40:13.150Z,1.75
2022-10-01T23:43:39.428Z,1.77
2022-10-01T23:46:45.007Z,1.95
2022-10-01T23:49:53.826Z,1.80
2022-10-01T23:53:03.598Z,1.80
2022-10-01T23:56:29.756Z,1.60
2022-10-01T23:59:41.813Z,1.58
